Time;durP1;ratioP1;P1;durP2;ratioP2;P2;SDS_P1;SDS_P2;PMS_P1;PMS_P2;Temp;Humidity;BMP_temperature;BMP_pressure;BME280_temperature;BME280_humidity;BME280_pressure;Samples;Min_cycle;Max_cycle;Signal;HPM_P1;HPM_P2
2021/10/11 00:00:08;;;;;;;;;;;12.10;96.30;12.50;100218.00;;;;336344;28;90516;-90
2021/10/11 00:00:20;;;;;;;;;;;12.10;96.40;12.40;100220.00;;;;338078;28;82518;-91
2021/10/11 00:00:32;;;;;;;;;;;12.10;96.40;12.40;100206.00;;;;337517;28;91282;-91
2021/10/11 00:00:44;;;;;;;;;;;12.10;96.40;12.40;100216.00;;;;338115;28;83182;-91
2021/10/11 00:00:56;;;;;;;;;;;12.10;96.40;12.40;100220.00;;;;337627;28;91628;-90
2021/10/11 00:01:07;;;;;;;;;;;12.10;96.40;12.40;100213.00;;;;340644;28;82511;-91
2021/10/11 00:01:19;;;;;;;;;;;12.10;96.40;12.30;100222.00;;;;337557;28;91592;-91
2021/10/11 00:01:31;;;;;;;;;;;12.10;96.40;12.40;100229.00;;;;338060;28;82502;-91
2021/10/11 00:01:43;;;;;;;;;;;12.00;96.40;12.40;100218.00;;;;338863;28;92013;-91
2021/10/11 00:01:56;;;;;;;;;;;12.00;96.40;12.30;100216.00;;;;339442;28;83506;-91
2021/10/11 00:02:08;;;;;;;;;;;12.00;96.50;12.30;100214.00;;;;339010;28;91420;-91
2021/10/11 00:02:19;;;;;;;;;;;12.00;96.50;12.20;100217.00;;;;339398;28;83504;-91
2021/10/11 00:02:31;;;;;;;;;;;12.00;96.50;12.20;100220.00;;;;339937;28;90778;-91
2021/10/11 00:02:43;;;;;;;;;;;12.00;96.50;12.20;100217.00;;;;340536;28;82489;-92
2021/10/11 00:02:55;;;;;;;;;;;12.00;96.80;12.20;100213.00;;;;337727;28;90324;-91
2021/10/11 00:03:07;;;;;;;;;;;12.00;96.50;12.20;100218.00;;;;339106;28;82633;-91
2021/10/11 00:03:18;;;;;;;;;;;12.00;96.50;12.30;100221.00;;;;339683;28;89455;-91
2021/10/11 00:03:30;;;;;;;;;;;12.00;96.60;12.30;100219.00;;;;339368;28;83393;-91
2021/10/11 00:03:42;;;;;;;;;;;11.90;96.80;12.40;100219.00;;;;338645;28;91509;-90
2021/10/11 00:03:54;;;;;;;;;;;12.00;96.60;12.40;100210.00;;;;338149;28;83289;-91
2021/10/11 00:04:05;;;;;;;;;;;11.90;96.60;12.40;100213.00;;;;338848;28;91518;-91
2021/10/11 00:04:17;;;;;;;;;;;12.00;96.60;12.30;100214.00;;;;339322;28;82408;-91
2021/10/11 00:04:29;;;;;;;;;;;12.00;96.60;12.30;100210.00;;;;341391;28;92206;-90
2021/10/11 00:04:41;;;;;;;;;;;11.90;96.60;12.30;100207.00;;;;339292;28;83407;-90
2021/10/11 00:04:53;;;;;;;;;;;11.90;96.60;12.40;100221.00;;;;343111;28;91431;-91
2021/10/11 00:05:05;;;;;;;;;;;12.00;96.60;12.30;100215.00;;;;340573;28;83280;-91
2021/10/11 00:05:17;;;;;;;;;;;11.90;96.60;12.30;100210.00;;;;337529;28;91383;-91
2021/10/11 00:05:29;;;;;;;;;;;11.90;96.60;12.30;100213.00;;;;340681;28;82450;-91
2021/10/11 00:05:41;;;;;;;;;;;12.00;96.70;12.30;100210.00;;;;338990;28;91206;-91
2021/10/11 00:05:52;;;;;;;;;;;12.00;96.70;12.30;100210.00;;;;338020;28;83365;-90
2021/10/11 00:06:04;;;;;;;;;;;12.00;96.70;12.40;100220.00;;;;338852;28;89270;-91
2021/10/11 00:06:16;;;;;;;;;;;12.00;96.80;12.40;100221.00;;;;337424;28;83416;-91
2021/10/11 00:06:28;;;;;;;;;;;11.90;96.70;12.40;100223.00;;;;338738;28;92504;-91
2021/10/11 00:06:40;;;;;;;;;;;11.90;96.70;12.40;100214.00;;;;340616;28;82500;-91
2021/10/11 00:06:51;;;;;;;;;;;11.90;96.70;12.40;100220.00;;;;337526;28;91663;-91
2021/10/11 00:07:04;;;;;;;;;;;12.00;96.80;12.40;100219.00;;;;339154;28;83395;-92
2021/10/11 00:07:17;;;;;;;;;;;11.90;96.70;12.30;100219.00;;;;338839;28;90321;-91
2021/10/11 00:07:29;;;;;;;;;;;11.90;96.80;12.30;100218.00;;;;337937;28;83440;-91
2021/10/11 00:07:41;;;;;;;;;;;12.00;96.80;12.20;100214.00;;;;337506;28;91571;-91
2021/10/11 00:07:53;;;;;;;;;;;11.90;96.80;12.30;100220.00;;;;339281;28;82511;-91
2021/10/11 00:08:05;;;;;;;;;;;11.90;96.80;12.40;100214.00;;;;338814;28;91437;-91
2021/10/11 00:08:17;;;;;;;;;;;12.00;96.80;12.40;100216.00;;;;338017;28;82354;-91
2021/10/11 00:08:29;;;;;;;;;;;11.90;96.80;12.30;100221.00;;;;340054;28;91294;-91
2021/10/11 00:08:41;;;;;;;;;;;12.00;96.80;12.20;100222.00;;;;338022;28;82397;-91
2021/10/11 00:08:53;;;;;;;;;;;11.90;96.80;12.30;100219.00;;;;336279;28;91165;-91
2021/10/11 00:09:05;;;;;;;;;;;11.90;96.80;12.40;100219.00;;;;337937;28;82432;-91
2021/10/11 00:09:16;;;;;;;;;;;11.90;96.80;12.40;100220.00;;;;337481;28;88067;-91
2021/10/11 00:09:28;;;;;;;;;;;11.90;96.90;12.40;100212.00;;;;337934;28;83520;-91
2021/10/11 00:09:40;;;;;;;;;;;11.90;96.80;12.40;100216.00;;;;338863;28;90809;-91
2021/10/11 00:09:52;;;;;;;;;;;11.90;96.80;12.40;100223.00;;;;337951;28;82541;-91
2021/10/11 00:10:05;;;;;;;;;;;12.00;96.80;12.40;100221.00;;;;336279;28;90140;-91
2021/10/11 00:10:20;;;;;;;;;;;12.00;96.80;12.30;100215.00;;;;337895;28;82474;-91
2021/10/11 00:10:32;;;;;;;;;;;12.00;96.70;12.30;100222.00;;;;338585;28;90560;-89
2021/10/11 00:10:43;;;;;;;;;;;11.90;96.70;12.40;100216.00;;;;335478;29;82460;-91
2021/10/11 00:10:55;;;;;;;;;;;11.90;96.80;12.40;100220.00;;;;336204;28;90216;-91
2021/10/11 00:11:07;;;;;;;;;;;11.90;96.80;12.30;100219.00;;;;335314;29;82447;-91
2021/10/11 00:11:19;;;;;;;;;;;12.00;96.70;12.40;100220.00;;;;337513;28;91747;-91
2021/10/11 00:11:31;;;;;;;;;;;11.90;96.70;12.40;100219.00;;;;337924;28;82632;-91
2021/10/11 00:11:42;;;;;;;;;;;11.90;96.70;12.40;100220.00;;;;337175;28;90382;-91
2021/10/11 00:11:54;;;;;;;;;;;12.00;96.70;12.40;100221.00;;;;337908;28;82493;-90
2021/10/11 00:12:06;;;;;;;;;;;11.90;96.80;12.30;100218.00;;;;337484;28;91452;-91
2021/10/11 00:12:24;;;;;;;;;;;11.90;96.70;12.30;100226.00;;;;338910;28;82653;-91
2021/10/11 00:12:35;;;;;;;;;;;11.90;96.70;12.30;100221.00;;;;338640;28;93536;-91
2021/10/11 00:12:48;;;;;;;;;;;11.90;96.70;12.30;100225.00;;;;346335;28;83505;-91
2021/10/11 00:12:59;;;;;;;;;;;11.90;96.70;12.30;100222.00;;;;337365;28;89491;-91
2021/10/11 00:13:11;;;;;;;;;;;11.90;96.70;12.30;100223.00;;;;339157;28;83452;-91
2021/10/11 00:13:23;;;;;;;;;;;11.90;96.70;12.20;100222.00;;;;337485;28;91728;-91
2021/10/11 00:13:35;;;;;;;;;;;11.90;96.70;12.20;100232.00;;;;336557;28;82634;-91
2021/10/11 00:13:47;;;;;;;;;;;11.90;96.80;12.20;100221.00;;;;338748;28;91656;-91
2021/10/11 00:13:58;;;;;;;;;;;11.90;96.70;12.30;100225.00;;;;336553;28;83438;-91
2021/10/11 00:14:10;;;;;;;;;;;11.90;96.80;12.40;100222.00;;;;337468;28;91040;-91
2021/10/11 00:14:22;;;;;;;;;;;11.90;96.90;12.40;100223.00;;;;339264;28;83635;-91
2021/10/11 00:14:34;;;;;;;;;;;11.90;96.90;12.40;100222.00;;;;338688;28;92414;-91
2021/10/11 00:14:46;;;;;;;;;;;11.90;96.90;12.30;100233.00;;;;337949;28;83356;-92
2021/10/11 00:14:57;;;;;;;;;;;11.90;96.80;12.40;100229.00;;;;337559;28;91259;-91
2021/10/11 00:15:09;;;;;;;;;;;11.90;96.90;12.40;100227.00;;;;336557;28;82602;-91
2021/10/11 00:15:24;;;;;;;;;;;11.90;96.90;12.40;100227.00;;;;336245;28;91751;-91
2021/10/11 00:15:36;;;;;;;;;;;11.90;96.90;12.40;100228.00;;;;337900;28;83451;-91
2021/10/11 00:15:48;;;;;;;;;;;12.00;96.80;12.40;100225.00;;;;337559;28;90226;-91
2021/10/11 00:15:59;;;;;;;;;;;12.00;96.90;12.40;100224.00;;;;336573;28;82503;-91
2021/10/11 00:16:12;;;;;;;;;;;11.90;96.80;12.40;100229.00;;;;336146;28;90262;-91
2021/10/11 00:16:24;;;;;;;;;;;12.00;96.80;12.50;100225.00;;;;337905;28;82453;-91
2021/10/11 00:16:36;;;;;;;;;;;12.00;96.90;12.50;100227.00;;;;338768;28;92073;-91
2021/10/11 00:16:48;;;;;;;;;;;12.00;96.90;12.50;100224.00;;;;336686;28;82508;-91
2021/10/11 00:16:59;;;;;;;;;;;12.00;96.80;12.40;100223.00;;;;337522;28;91485;-91
2021/10/11 00:17:11;;;;;;;;;;;12.00;96.70;12.40;100230.00;;;;336574;28;83392;-91
2021/10/11 00:17:23;;;;;;;;;;;12.00;96.70;12.40;100218.00;;;;336217;28;90327;-91
2021/10/11 00:17:35;;;;;;;;;;;12.00;96.60;12.40;100219.00;;;;336610;28;83386;-91
2021/10/11 00:17:47;;;;;;;;;;;12.00;96.70;12.50;100223.00;;;;336163;28;91520;-91
2021/10/11 00:17:59;;;;;;;;;;;12.00;96.70;12.50;100216.00;;;;343544;28;83359;-91
2021/10/11 00:18:10;;;;;;;;;;;12.00;96.70;12.50;100224.00;;;;334855;28;91640;-91
2021/10/11 00:18:23;;;;;;;;;;;12.00;96.70;12.40;100230.00;;;;344934;28;83418;-91
2021/10/11 00:18:35;;;;;;;;;;;12.00;96.70;12.30;100231.00;;;;336058;28;90442;-92
2021/10/11 00:18:47;;;;;;;;;;;12.00;96.60;12.20;100223.00;;;;337952;28;83335;-91
2021/10/11 00:18:58;;;;;;;;;;;12.00;96.60;12.20;100220.00;;;;337496;28;91491;-91
2021/10/11 00:19:10;;;;;;;;;;;12.00;96.60;12.30;100223.00;;;;336589;28;83512;-91
2021/10/11 00:19:22;;;;;;;;;;;12.00;96.60;12.30;100227.00;;;;337330;28;91497;-91
2021/10/11 00:19:36;;;;;;;;;;;12.00;96.90;12.40;100226.00;;;;339245;28;83361;-91
2021/10/11 00:19:50;;;;;;;;;;;12.00;96.70;12.40;100232.00;;;;338718;28;90394;-91
2021/10/11 00:20:03;;;;;;;;;;;12.00;96.60;12.30;100233.00;;;;336652;28;83506;-91
2021/10/11 00:20:15;;;;;;;;;;;12.00;96.50;12.30;100225.00;;;;340086;28;90593;-91
2021/10/11 00:20:26;;;;;;;;;;;12.00;96.50;12.30;100228.00;;;;336639;28;83260;-91
2021/10/11 00:20:38;;;;;;;;;;;11.90;96.50;12.30;100231.00;;;;338749;28;91856;-91
2021/10/11 00:20:50;;;;;;;;;;;11.90;96.50;12.40;100240.00;;;;337958;28;83416;-91
2021/10/11 00:21:02;;;;;;;;;;;12.00;96.60;12.40;100228.00;;;;338864;28;90279;-91
2021/10/11 00:21:14;;;;;;;;;;;11.90;96.60;12.40;100226.00;;;;338552;28;83393;-91
2021/10/11 00:21:26;;;;;;;;;;;12.00;96.60;12.40;100233.00;;;;336253;28;90539;-91
2021/10/11 00:21:37;;;;;;;;;;;12.00;96.60;12.40;100230.00;;;;337911;28;83413;-91
2021/10/11 00:21:50;;;;;;;;;;;12.00;96.60;12.30;100233.00;;;;336114;28;91060;-91
2021/10/11 00:22:02;;;;;;;;;;;11.90;96.50;12.40;100229.00;;;;336596;28;83519;-92
2021/10/11 00:22:14;;;;;;;;;;;12.00;96.50;12.40;100240.00;;;;337753;28;91253;-91
2021/10/11 00:22:26;;;;;;;;;;;12.00;96.50;12.30;100233.00;;;;337829;28;82695;-91
2021/10/11 00:22:38;;;;;;;;;;;11.90;96.40;12.40;100239.00;;;;336162;28;90549;-91
2021/10/11 00:22:50;;;;;;;;;;;12.00;96.50;12.30;100226.00;;;;337931;28;83405;-90
2021/10/11 00:23:02;;;;;;;;;;;12.00;96.60;12.40;100233.00;;;;338794;28;90733;-91
2021/10/11 00:23:15;;;;;;;;;;;12.00;96.70;12.30;100235.00;;;;336604;28;83402;-92
2021/10/11 00:23:26;;;;;;;;;;;12.00;96.70;12.20;100228.00;;;;338557;28;89519;-91
2021/10/11 00:23:38;;;;;;;;;;;12.00;96.70;12.30;100235.00;;;;339121;28;83416;-91
2021/10/11 00:23:50;;;;;;;;;;;12.00;96.70;12.40;100237.00;;;;337434;28;90530;-90
2021/10/11 00:24:02;;;;;;;;;;;12.00;96.70;12.30;100231.00;;;;340587;28;82490;-91
2021/10/11 00:24:14;;;;;;;;;;;12.00;96.70;12.30;100238.00;;;;339292;28;90986;-91
2021/10/11 00:24:26;;;;;;;;;;;11.90;96.70;12.40;100232.00;;;;337912;28;82574;-91
2021/10/11 00:24:38;;;;;;;;;;;11.90;96.70;12.30;100232.00;;;;337429;28;91172;-91
2021/10/11 00:24:49;;;;;;;;;;;12.00;96.70;12.30;100241.00;;;;338022;28;82438;-91
2021/10/11 00:25:01;;;;;;;;;;;11.90;96.70;12.20;100232.00;;;;336189;28;91477;-91
2021/10/11 00:25:13;;;;;;;;;;;11.90;96.70;12.30;100237.00;;;;336576;28;82544;-91
2021/10/11 00:25:25;;;;;;;;;;;11.90;96.70;12.30;100235.00;;;;334943;28;90441;-90
2021/10/11 00:25:38;;;;;;;;;;;11.90;96.80;12.30;100233.00;;;;336663;28;82657;-91
2021/10/11 00:25:49;;;;;;;;;;;11.90;96.80;12.40;100228.00;;;;336142;28;91753;-91
2021/10/11 00:26:01;;;;;;;;;;;11.90;96.80;12.40;100230.00;;;;339314;28;82475;-91
2021/10/11 00:26:13;;;;;;;;;;;11.90;96.80;12.40;100223.00;;;;337391;28;91572;-91
2021/10/11 00:26:25;;;;;;;;;;;11.90;96.90;12.30;100230.00;;;;339184;28;83425;-91
2021/10/11 00:26:36;;;;;;;;;;;11.90;96.80;12.30;100233.00;;;;336159;28;90021;-91
2021/10/11 00:26:48;;;;;;;;;;;11.90;96.80;12.30;100229.00;;;;337970;28;83333;-91
2021/10/11 00:27:00;;;;;;;;;;;11.90;96.60;12.30;100230.00;;;;337547;28;90360;-91
2021/10/11 00:27:12;;;;;;;;;;;11.90;96.70;12.30;100229.00;;;;339297;28;82472;-91
2021/10/11 00:27:24;;;;;;;;;;;11.90;96.60;12.30;100236.00;;;;337473;28;91561;-91
2021/10/11 00:27:36;;;;;;;;;;;11.90;96.60;12.30;100233.00;;;;337936;28;83858;-91
2021/10/11 00:27:47;;;;;;;;;;;11.90;96.60;12.20;100235.00;;;;337481;28;91191;-91
2021/10/11 00:27:59;;;;;;;;;;;11.90;96.60;12.10;100231.00;;;;336660;28;82266;-91
2021/10/11 00:28:11;;;;;;;;;;;11.90;96.60;12.10;100226.00;;;;338880;28;90577;-90
2021/10/11 00:28:23;;;;;;;;;;;11.90;96.60;12.10;100229.00;;;;337841;28;83355;-91
2021/10/11 00:28:34;;;;;;;;;;;11.90;96.60;12.20;100237.00;;;;337460;28;90671;-91
2021/10/11 00:28:46;;;;;;;;;;;11.80;96.60;12.30;100238.00;;;;339237;28;82360;-91
2021/10/11 00:28:58;;;;;;;;;;;11.90;96.70;12.30;100242.00;;;;340247;28;91348;-91
2021/10/11 00:29:10;;;;;;;;;;;11.90;96.80;12.30;100241.00;;;;337881;28;83421;-91
2021/10/11 00:29:22;;;;;;;;;;;11.90;96.80;12.40;100226.00;;;;337548;28;91367;-91
2021/10/11 00:29:33;;;;;;;;;;;11.90;96.80;12.30;100243.00;;;;337944;28;82458;-90
2021/10/11 00:29:45;;;;;;;;;;;11.90;96.70;12.30;100243.00;;;;338803;28;90251;-91
2021/10/11 00:29:58;;;;;;;;;;;11.90;96.70;12.30;100239.00;;;;338013;28;83361;-91
2021/10/11 00:30:11;;;;;;;;;;;11.90;96.70;12.20;100241.00;;;;336942;28;91418;-91
2021/10/11 00:30:23;;;;;;;;;;;11.90;96.70;12.10;100232.00;;;;337867;28;83467;-92
2021/10/11 00:30:34;;;;;;;;;;;11.90;96.70;12.20;100240.00;;;;337335;28;92489;-91
2021/10/11 00:30:46;;;;;;;;;;;11.90;96.70;12.20;100236.00;;;;336565;28;83427;-91
2021/10/11 00:30:58;;;;;;;;;;;11.80;96.70;12.20;100234.00;;;;337541;28;91874;-91
2021/10/11 00:31:10;;;;;;;;;;;11.90;96.70;12.20;100239.00;;;;339260;28;82515;-91
2021/10/11 00:31:22;;;;;;;;;;;11.90;96.70;12.20;100242.00;;;;338864;28;90163;-91
2021/10/11 00:31:34;;;;;;;;;;;11.80;96.70;12.30;100239.00;;;;337909;28;82556;-90
2021/10/11 00:31:45;;;;;;;;;;;11.90;96.80;12.20;100238.00;;;;338769;28;91767;-91
2021/10/11 00:31:57;;;;;;;;;;;11.90;96.80;12.30;100227.00;;;;337968;28;82558;-91
2021/10/11 00:32:09;;;;;;;;;;;11.80;96.70;12.30;100239.00;;;;336331;28;90511;-91
2021/10/11 00:32:21;;;;;;;;;;;11.80;96.80;12.30;100235.00;;;;338047;28;82509;-90
2021/10/11 00:32:33;;;;;;;;;;;11.80;96.80;12.10;100236.00;;;;338706;28;91125;-91
2021/10/11 00:32:47;;;;;;;;;;;11.80;96.70;12.20;100235.00;;;;339303;28;82520;-91
2021/10/11 00:32:58;;;;;;;;;;;11.80;96.70;12.30;100245.00;;;;336191;28;91368;-91
2021/10/11 00:33:10;;;;;;;;;;;11.80;96.80;12.30;100231.00;;;;337954;28;82617;-91
2021/10/11 00:33:22;;;;;;;;;;;11.80;96.90;12.30;100238.00;;;;336117;28;91940;-91
2021/10/11 00:33:34;;;;;;;;;;;11.90;96.90;12.30;100231.00;;;;337924;28;83482;-91
2021/10/11 00:33:46;;;;;;;;;;;11.80;96.80;12.30;100232.00;;;;337488;28;90886;-91
2021/10/11 00:33:57;;;;;;;;;;;11.90;96.70;12.20;100237.00;;;;336559;28;82511;-91
2021/10/11 00:34:09;;;;;;;;;;;11.90;96.70;12.30;100240.00;;;;337540;28;91225;-90
2021/10/11 00:34:21;;;;;;;;;;;11.90;96.70;12.30;100234.00;;;;336662;28;83402;-92
2021/10/11 00:34:33;;;;;;;;;;;11.90;96.80;12.30;100230.00;;;;338789;28;92372;-91
2021/10/11 00:34:44;;;;;;;;;;;11.90;96.80;12.20;100236.00;;;;337866;28;83477;-90
2021/10/11 00:34:56;;;;;;;;;;;11.80;96.80;12.20;100236.00;;;;338817;28;91644;-91
2021/10/11 00:35:08;;;;;;;;;;;11.80;96.80;12.20;100233.00;;;;336525;28;82630;-90
2021/10/11 00:35:20;;;;;;;;;;;11.80;96.80;12.30;100243.00;;;;336218;28;91055;-91
2021/10/11 00:35:32;;;;;;;;;;;11.80;96.80;12.20;100239.00;;;;336638;28;83328;-91
2021/10/11 00:35:44;;;;;;;;;;;11.80;96.80;12.30;100243.00;;;;338817;28;91302;-91
2021/10/11 00:35:56;;;;;;;;;;;11.80;96.90;12.30;100239.00;;;;337968;28;82526;-91
2021/10/11 00:36:08;;;;;;;;;;;11.80;96.90;12.30;100241.00;;;;336174;28;91493;-91
2021/10/11 00:36:19;;;;;;;;;;;11.80;96.80;12.30;100245.00;;;;339186;28;83413;-91
2021/10/11 00:36:31;;;;;;;;;;;11.80;96.80;12.30;100240.00;;;;343009;28;92222;-91
2021/10/11 00:36:43;;;;;;;;;;;11.80;96.80;12.30;100238.00;;;;343490;28;83406;-91
2021/10/11 00:36:55;;;;;;;;;;;11.80;96.90;12.20;100240.00;;;;338802;28;91648;-91
2021/10/11 00:37:06;;;;;;;;;;;11.80;96.80;12.30;100236.00;;;;339232;28;82463;-91
2021/10/11 00:37:18;;;;;;;;;;;11.80;96.80;12.20;100231.00;;;;340192;28;91642;-91
2021/10/11 00:37:30;;;;;;;;;;;11.80;96.80;12.20;100241.00;;;;337937;28;82479;-91
2021/10/11 00:37:42;;;;;;;;;;;11.80;96.80;12.20;100235.00;;;;337552;28;91872;-91
2021/10/11 00:37:54;;;;;;;;;;;11.80;96.80;12.20;100234.00;;;;344787;28;83390;-90
2021/10/11 00:38:06;;;;;;;;;;;11.80;96.70;12.20;100235.00;;;;344466;28;91378;-91
2021/10/11 00:38:18;;;;;;;;;;;11.80;96.70;12.20;100226.00;;;;336685;28;82431;-91
2021/10/11 00:38:30;;;;;;;;;;;11.80;96.70;12.30;100238.00;;;;344295;28;92654;-92
2021/10/11 00:38:42;;;;;;;;;;;11.80;96.80;12.30;100231.00;;;;336625;28;82199;-90
2021/10/11 00:38:54;;;;;;;;;;;11.80;96.80;12.30;100241.00;;;;337442;28;91628;-90
2021/10/11 00:39:05;;;;;;;;;;;11.80;96.80;12.20;100238.00;;;;339272;28;83340;-91
2021/10/11 00:39:17;;;;;;;;;;;11.80;96.90;12.10;100240.00;;;;346717;28;90415;-91
2021/10/11 00:39:29;;;;;;;;;;;11.80;96.90;12.10;100236.00;;;;340587;28;82476;-91
2021/10/11 00:39:41;;;;;;;;;;;11.80;96.90;12.00;100231.00;;;;344412;28;90661;-91
2021/10/11 00:39:53;;;;;;;;;;;11.80;96.90;12.10;100240.00;;;;346301;28;83650;-89
2021/10/11 00:40:05;;;;;;;;;;;11.80;96.90;12.10;100235.00;;;;345794;28;91730;-92
2021/10/11 00:40:17;;;;;;;;;;;11.80;96.90;12.10;100241.00;;;;340585;28;82552;-92
2021/10/11 00:40:29;;;;;;;;;;;11.80;96.90;12.10;100238.00;;;;337398;28;92281;-91
2021/10/11 00:40:41;;;;;;;;;;;11.80;96.90;12.10;100241.00;;;;337754;28;82533;-91
2021/10/11 00:40:53;;;;;;;;;;;11.80;96.90;12.10;100234.00;;;;338863;28;88694;-92
2021/10/11 00:41:04;;;;;;;;;;;11.70;96.90;12.00;100243.00;;;;340503;28;83426;-91
2021/10/11 00:41:16;;;;;;;;;;;11.70;96.90;12.10;100230.00;;;;340258;28;88863;-91
2021/10/11 00:41:31;;;;;;;;;;;11.70;96.90;12.00;100232.00;;;;339334;28;83242;-91
2021/10/11 00:41:43;;;;;;;;;;;11.70;97.00;12.10;100235.00;;;;340140;28;91142;-91
2021/10/11 00:41:54;;;;;;;;;;;11.70;96.90;12.10;100235.00;;;;340616;28;82492;-92
2021/10/11 00:42:06;;;;;;;;;;;11.70;96.90;12.10;100232.00;;;;338826;28;91472;-91
2021/10/11 00:42:18;;;;;;;;;;;11.70;96.90;12.10;100235.00;;;;340389;28;83912;-91
2021/10/11 00:42:30;;;;;;;;;;;11.70;96.90;12.10;100240.00;;;;337423;28;91385;-91
2021/10/11 00:42:42;;;;;;;;;;;11.70;96.90;12.10;100244.00;;;;339174;28;83476;-91
2021/10/11 00:42:53;;;;;;;;;;;11.70;96.90;12.10;100241.00;;;;334901;29;90193;-91
2021/10/11 00:43:05;;;;;;;;;;;11.70;96.90;12.20;100239.00;;;;337973;28;83344;-91
2021/10/11 00:43:17;;;;;;;;;;;11.70;96.90;12.10;100242.00;;;;337484;28;90607;-91
2021/10/11 00:43:29;;;;;;;;;;;11.70;96.80;12.00;100238.00;;;;336649;28;82452;-91
2021/10/11 00:43:41;;;;;;;;;;;11.70;96.90;12.00;100238.00;;;;337325;28;91667;-91
2021/10/11 00:43:53;;;;;;;;;;;11.70;96.90;12.10;100241.00;;;;337861;28;83279;-91
2021/10/11 00:44:05;;;;;;;;;;;11.70;96.90;12.10;100238.00;;;;337381;28;92009;-91
2021/10/11 00:44:17;;;;;;;;;;;11.70;96.90;12.10;100235.00;;;;339285;28;83417;-91
2021/10/11 00:44:29;;;;;;;;;;;11.70;96.90;12.10;100238.00;;;;337506;28;91365;-90
2021/10/11 00:44:41;;;;;;;;;;;11.70;96.80;12.00;100241.00;;;;338100;28;82344;-91
2021/10/11 00:44:52;;;;;;;;;;;11.70;96.80;12.10;100239.00;;;;334891;29;90546;-91
2021/10/11 00:45:05;;;;;;;;;;;11.70;96.80;12.10;100236.00;;;;339168;28;83429;-91
2021/10/11 00:45:17;;;;;;;;;;;11.70;96.80;12.10;100236.00;;;;340577;28;90714;-91
2021/10/11 00:45:29;;;;;;;;;;;11.70;96.80;12.10;100241.00;;;;339150;28;83476;-91
2021/10/11 00:45:40;;;;;;;;;;;11.70;96.80;12.10;100242.00;;;;340140;28;91549;-92
2021/10/11 00:45:52;;;;;;;;;;;11.70;96.90;12.00;100240.00;;;;339282;28;82597;-91
2021/10/11 00:46:04;;;;;;;;;;;11.70;96.90;12.00;100237.00;;;;338789;28;91380;-91
2021/10/11 00:46:16;;;;;;;;;;;11.70;96.90;12.10;100243.00;;;;339269;28;83363;-90
2021/10/11 00:46:28;;;;;;;;;;;11.70;96.90;12.10;100245.00;;;;337390;28;90979;-90
2021/10/11 00:46:39;;;;;;;;;;;11.70;96.80;12.00;100242.00;;;;340540;28;82633;-90
2021/10/11 00:46:51;;;;;;;;;;;11.70;96.80;12.10;100237.00;;;;338878;28;91113;-90
2021/10/11 00:47:03;;;;;;;;;;;11.70;96.80;12.00;100241.00;;;;339078;28;83535;-90
2021/10/11 00:47:15;;;;;;;;;;;11.70;96.80;12.00;100248.00;;;;338641;28;90508;-91
2021/10/11 00:47:27;;;;;;;;;;;11.70;96.80;11.80;100249.00;;;;339247;28;83440;-90
2021/10/11 00:47:38;;;;;;;;;;;11.70;96.90;11.80;100242.00;;;;347206;28;90361;-91
2021/10/11 00:47:50;;;;;;;;;;;11.70;97.00;12.00;100237.00;;;;340497;28;82589;-91
2021/10/11 00:48:02;;;;;;;;;;;11.70;97.00;12.10;100238.00;;;;340163;28;91152;-90
2021/10/11 00:48:15;;;;;;;;;;;11.70;97.00;12.10;100249.00;;;;338979;28;83502;-91
2021/10/11 00:48:28;;;;;;;;;;;11.70;96.90;12.10;100248.00;;;;337017;28;97595;-90
2021/10/11 00:48:40;;;;;;;;;;;11.70;96.90;12.10;100243.00;;;;337875;28;83304;-91
2021/10/11 00:48:56;;;;;;;;;;;11.70;96.90;12.00;100248.00;;;;340156;28;91640;-90
2021/10/11 00:49:08;;;;;;;;;;;11.70;96.90;12.00;100246.00;;;;337869;28;83427;-90
2021/10/11 00:49:20;;;;;;;;;;;11.70;96.90;12.00;100246.00;;;;337103;28;88991;-90
2021/10/11 00:49:31;;;;;;;;;;;11.70;96.90;12.00;100240.00;;;;339134;28;83427;-90
2021/10/11 00:49:43;;;;;;;;;;;11.70;96.90;12.00;100241.00;;;;338744;28;92289;-90
2021/10/11 00:49:55;;;;;;;;;;;11.70;96.80;12.10;100248.00;;;;337878;28;83462;-90
2021/10/11 00:50:07;;;;;;;;;;;11.70;96.90;12.00;100244.00;;;;337577;28;90232;-90
2021/10/11 00:50:19;;;;;;;;;;;11.70;96.80;11.90;100246.00;;;;339344;28;82481;-89
2021/10/11 00:50:31;;;;;;;;;;;11.70;96.80;11.90;100242.00;;;;338680;28;91411;-90
2021/10/11 00:50:43;;;;;;;;;;;11.60;96.80;12.00;100241.00;;;;339394;28;83414;-90
2021/10/11 00:50:57;;;;;;;;;;;11.60;96.80;12.00;100246.00;;;;338847;28;90478;-90
2021/10/11 00:51:09;;;;;;;;;;;11.60;96.80;12.00;100243.00;;;;339264;28;83449;-90
2021/10/11 00:51:21;;;;;;;;;;;11.60;96.90;12.00;100241.00;;;;340567;28;94925;-90
2021/10/11 00:51:32;;;;;;;;;;;11.60;96.90;12.10;100242.00;;;;335453;28;83486;-90
2021/10/11 00:51:44;;;;;;;;;;;11.60;96.90;12.10;100248.00;;;;336550;28;90297;-90
2021/10/11 00:51:56;;;;;;;;;;;11.60;96.90;12.00;100244.00;;;;340600;28;83452;-90
2021/10/11 00:52:08;;;;;;;;;;;11.60;96.80;12.00;100239.00;;;;338948;28;91224;-91
2021/10/11 00:52:20;;;;;;;;;;;11.60;96.80;11.90;100247.00;;;;339361;28;83271;-90
2021/10/11 00:52:32;;;;;;;;;;;11.60;96.80;12.00;100243.00;;;;337490;28;92603;-91
2021/10/11 00:52:43;;;;;;;;;;;11.60;96.80;12.00;100244.00;;;;338036;28;83232;-91
2021/10/11 00:52:55;;;;;;;;;;;11.60;96.90;12.00;100245.00;;;;338746;28;90912;-90
2021/10/11 00:53:07;;;;;;;;;;;11.60;96.90;12.00;100237.00;;;;339155;28;83340;-90
2021/10/11 00:53:19;;;;;;;;;;;11.60;97.00;12.00;100247.00;;;;338826;28;90237;-91
2021/10/11 00:53:32;;;;;;;;;;;11.60;96.90;12.00;100244.00;;;;339237;28;82397;-90
2021/10/11 00:53:44;;;;;;;;;;;11.60;96.90;12.00;100243.00;;;;337545;28;90162;-91
2021/10/11 00:53:55;;;;;;;;;;;11.60;97.10;12.00;100246.00;;;;337937;28;82418;-90
2021/10/11 00:54:08;;;;;;;;;;;11.60;96.90;12.00;100240.00;;;;338796;28;90460;-91
2021/10/11 00:54:19;;;;;;;;;;;11.60;96.90;12.00;100244.00;;;;337727;28;83392;-90
2021/10/11 00:54:32;;;;;;;;;;;11.60;96.90;12.00;100241.00;;;;338713;28;92840;-90
2021/10/11 00:54:44;;;;;;;;;;;11.60;96.90;12.10;100235.00;;;;340675;28;82352;-90
2021/10/11 00:54:55;;;;;;;;;;;11.60;96.90;12.10;100244.00;;;;337509;28;90068;-91
2021/10/11 00:55:08;;;;;;;;;;;11.60;96.90;12.00;100251.00;;;;341667;28;83677;-90
2021/10/11 00:55:20;;;;;;;;;;;11.60;97.00;11.90;100245.00;;;;336364;28;91360;-91
2021/10/11 00:55:31;;;;;;;;;;;11.60;96.90;12.00;100240.00;;;;337783;28;83569;-91
2021/10/11 00:55:43;;;;;;;;;;;11.60;97.00;12.00;100242.00;;;;338833;28;91443;-91
2021/10/11 00:55:55;;;;;;;;;;;11.60;97.00;12.10;100240.00;;;;336581;28;82588;-90
2021/10/11 00:56:07;;;;;;;;;;;11.60;97.00;12.00;100241.00;;;;337462;28;90389;-90
2021/10/11 00:56:19;;;;;;;;;;;11.60;97.00;12.00;100243.00;;;;340629;28;82489;-91
2021/10/11 00:56:31;;;;;;;;;;;11.60;96.90;12.00;100235.00;;;;337391;28;91317;-90
2021/10/11 00:56:42;;;;;;;;;;;11.60;96.90;12.00;100238.00;;;;336632;28;82495;-90
2021/10/11 00:56:54;;;;;;;;;;;11.60;97.00;12.00;100238.00;;;;337528;28;90389;-90
2021/10/11 00:57:06;;;;;;;;;;;11.60;97.00;11.90;100243.00;;;;337728;28;83498;-91
2021/10/11 00:57:18;;;;;;;;;;;11.60;96.90;11.90;100250.00;;;;338413;28;90448;-90
2021/10/11 00:57:29;;;;;;;;;;;11.60;97.00;12.00;100237.00;;;;339206;28;83427;-90
2021/10/11 00:57:42;;;;;;;;;;;11.60;97.00;12.00;100235.00;;;;338893;28;90341;-91
2021/10/11 00:57:53;;;;;;;;;;;11.60;97.00;12.00;100243.00;;;;337825;28;83522;-90
2021/10/11 00:58:05;;;;;;;;;;;11.60;96.90;12.00;100245.00;;;;338798;28;90458;-91
2021/10/11 00:58:17;;;;;;;;;;;11.60;96.90;12.00;100245.00;;;;337146;28;86392;-92
2021/10/11 00:58:30;;;;;;;;;;;11.60;96.80;11.90;100247.00;;;;338644;28;92677;-90